createdAt,value
2018-07-30T00:00:36.838Z,31.80
2018-07-30T00:03:04.305Z,31.70
2018-07-30T00:05:31.742Z,31.70
2018-07-30T00:07:59.195Z,31.70
2018-07-30T00:10:26.632Z,31.70
2018-07-30T00:12:54.096Z,31.60
2018-07-30T00:15:21.536Z,31.60
2018-07-30T00:17:49.001Z,31.60
2018-07-30T00:20:16.441Z,31.60
2018-07-30T00:22:43.913Z,31.50
2018-07-30T00:25:11.341Z,31.50
2018-07-30T00:27:38.809Z,31.40
2018-07-30T00:30:06.337Z,31.40
2018-07-30T00:32:33.795Z,31.40
2018-07-30T00:35:01.229Z,31.40
2018-07-30T00:37:28.720Z,31.40
2018-07-30T00:39:56.157Z,31.30
2018-07-30T00:42:23.612Z,31.30
2018-07-30T00:44:51.073Z,31.30
2018-07-30T00:47:18.526Z,31.20
2018-07-30T00:49:45.977Z,31.20
2018-07-30T00:52:13.421Z,31.20
2018-07-30T00:54:40.884Z,31.20
2018-07-30T00:57:08.325Z,31.20
2018-07-30T00:59:35.781Z,31.20
2018-07-30T01:02:03.222Z,31.20
2018-07-30T01:04:30.685Z,31.10
2018-07-30T01:06:58.124Z,31.10
2018-07-30T01:09:25.609Z,31.10
2018-07-30T01:11:57.295Z,31.10
2018-07-30T01:14:24.935Z,31.10
2018-07-30T01:16:52.347Z,31.00
2018-07-30T01:19:19.813Z,31.00
2018-07-30T01:21:47.247Z,31.00
2018-07-30T01:24:14.728Z,31.00
2018-07-30T01:26:42.269Z,31.00
2018-07-30T01:29:11.769Z,30.90
2018-07-30T01:31:39.210Z,30.90
2018-07-30T01:34:06.937Z,30.90
2018-07-30T01:36:34.445Z,30.90
2018-07-30T01:39:01.894Z,30.90
2018-07-30T01:44:03.432Z,30.90
2018-07-30T01:46:30.889Z,30.90
2018-07-30T01:51:32.049Z,30.90
2018-07-30T01:53:59.494Z,30.80
2018-07-30T01:56:26.944Z,30.80
2018-07-30T01:58:54.384Z,30.80
2018-07-30T02:01:21.845Z,30.80
2018-07-30T02:03:49.284Z,30.80
2018-07-30T02:06:16.753Z,30.70
2018-07-30T02:08:44.208Z,30.70
2018-07-30T02:11:11.672Z,30.70
2018-07-30T02:13:39.124Z,30.70
2018-07-30T02:16:06.596Z,30.70
2018-07-30T02:18:34.036Z,30.70
2018-07-30T02:21:01.500Z,30.70
2018-07-30T02:23:28.977Z,30.70
2018-07-30T02:25:56.533Z,30.70
2018-07-30T02:28:23.992Z,30.60
2018-07-30T02:30:51.747Z,30.60
2018-07-30T02:33:19.182Z,30.60
2018-07-30T02:35:46.653Z,30.60
2018-07-30T02:38:14.100Z,30.60
2018-07-30T02:40:41.561Z,30.50
2018-07-30T02:43:09.009Z,30.50
2018-07-30T02:45:36.465Z,30.50
2018-07-30T02:48:03.911Z,30.50
2018-07-30T02:50:31.385Z,30.50
2018-07-30T02:52:58.839Z,30.40
2018-07-30T02:55:26.295Z,30.40
2018-07-30T02:57:53.737Z,30.40
2018-07-30T03:00:21.208Z,30.40
2018-07-30T03:02:49.354Z,30.40
2018-07-30T03:05:17.344Z,30.30
2018-07-30T03:07:44.808Z,30.30
2018-07-30T03:10:12.282Z,30.30
2018-07-30T03:12:39.720Z,30.30
2018-07-30T03:15:07.200Z,30.30
2018-07-30T03:17:34.640Z,30.30
2018-07-30T03:20:02.085Z,30.20
2018-07-30T03:22:29.553Z,30.20
2018-07-30T03:24:56.997Z,30.20
2018-07-30T03:27:24.456Z,30.20
2018-07-30T03:29:51.905Z,30.20
2018-07-30T03:32:19.369Z,30.10
2018-07-30T03:34:46.809Z,30.10
2018-07-30T03:37:14.277Z,30.10
2018-07-30T03:39:41.717Z,30.10
2018-07-30T03:42:09.183Z,30.10
2018-07-30T03:44:36.849Z,30.10
2018-07-30T03:47:04.345Z,30.10
2018-07-30T03:49:31.792Z,30.10
2018-07-30T03:51:59.252Z,30.10
2018-07-30T03:54:26.773Z,30.10
2018-07-30T03:56:54.268Z,30.10
2018-07-30T03:59:21.709Z,30.00
2018-07-30T04:01:49.173Z,30.00
2018-07-30T04:04:16.609Z,30.00
2018-07-30T04:06:44.081Z,30.00
2018-07-30T04:09:11.539Z,30.00
2018-07-30T04:11:39.033Z,30.00
2018-07-30T04:14:06.571Z,30.00
2018-07-30T04:17:05.137Z,30.00
2018-07-30T04:19:32.607Z,29.90
2018-07-30T04:22:00.068Z,29.90
2018-07-30T04:24:27.517Z,29.90
2018-07-30T04:26:54.976Z,29.90
2018-07-30T04:29:22.437Z,29.90
2018-07-30T04:31:49.892Z,29.90
2018-07-30T04:34:17.377Z,29.90
2018-07-30T04:36:45.080Z,29.90
2018-07-30T04:39:13.768Z,29.80
2018-07-30T04:41:41.362Z,29.80
2018-07-30T04:44:08.988Z,29.80
2018-07-30T04:46:36.882Z,29.80
2018-07-30T04:49:04.348Z,29.90
2018-07-30T04:51:32.097Z,29.90
2018-07-30T04:53:59.736Z,29.90
2018-07-30T04:56:27.264Z,30.00
2018-07-30T05:01:21.953Z,30.00
2018-07-30T05:03:49.479Z,30.00
2018-07-30T05:06:16.885Z,30.00
2018-07-30T05:08:44.418Z,30.00
2018-07-30T05:11:12.092Z,30.00
2018-07-30T05:13:39.508Z,30.10
2018-07-30T05:16:06.974Z,30.10
2018-07-30T05:18:34.452Z,30.10
2018-07-30T05:21:01.913Z,30.10
2018-07-30T05:23:29.465Z,30.20
2018-07-30T05:25:56.929Z,30.20
2018-07-30T05:28:24.377Z,30.20
2018-07-30T05:30:52.030Z,30.20
2018-07-30T05:33:20.225Z,30.30
2018-07-30T05:35:47.671Z,30.30
2018-07-30T05:38:15.161Z,30.40
2018-07-30T05:40:42.609Z,30.40
2018-07-30T05:43:10.085Z,30.50
2018-07-30T05:45:37.533Z,30.50
2018-07-30T05:48:05.218Z,30.60
2018-07-30T05:52:59.907Z,30.70
2018-07-30T05:55:27.437Z,30.80
2018-07-30T05:57:54.905Z,30.80
2018-07-30T06:00:22.345Z,30.90
2018-07-30T06:02:50.005Z,31.00
2018-07-30T06:05:17.465Z,31.10
2018-07-30T06:07:44.969Z,31.10
2018-07-30T06:10:12.420Z,31.20
2018-07-30T06:12:39.880Z,31.30
2018-07-30T06:17:34.617Z,31.50
2018-07-30T06:20:02.056Z,31.50
2018-07-30T06:22:29.553Z,31.60
2018-07-30T06:24:56.998Z,31.70
2018-07-30T06:27:24.544Z,31.80
2018-07-30T06:29:51.981Z,31.90
2018-07-30T06:32:19.444Z,31.90
2018-07-30T06:37:14.726Z,32.10
2018-07-30T06:39:42.177Z,32.10
2018-07-30T06:42:09.769Z,32.20
2018-07-30T06:44:37.214Z,32.30
2018-07-30T06:47:04.901Z,32.30
2018-07-30T06:49:32.429Z,32.40
2018-07-30T06:52:00.001Z,32.50
2018-07-30T06:54:27.437Z,32.50
2018-07-30T06:56:54.909Z,32.60
2018-07-30T06:59:23.032Z,32.70
2018-07-30T07:01:51.333Z,32.80
2018-07-30T07:04:19.213Z,32.90
2018-07-30T07:06:46.690Z,33.00
2018-07-30T07:09:14.129Z,33.00
2018-07-30T07:11:41.601Z,33.10
2018-07-30T07:14:09.041Z,33.20
2018-07-30T07:16:36.707Z,33.20
2018-07-30T07:19:04.081Z,33.30
2018-07-30T07:21:31.602Z,33.40
2018-07-30T07:23:59.337Z,33.50
2018-07-30T07:26:26.776Z,33.60
2018-07-30T07:28:54.390Z,33.70
2018-07-30T07:31:21.836Z,33.80
2018-07-30T07:33:49.335Z,33.80
2018-07-30T07:36:16.917Z,33.90
2018-07-30T07:38:44.400Z,34.00
2018-07-30T07:41:11.897Z,34.10
2018-07-30T07:43:39.745Z,34.10
2018-07-30T07:46:07.221Z,34.20
2018-07-30T07:48:34.731Z,34.30
2018-07-30T07:51:02.638Z,34.40
2018-07-30T07:53:29.973Z,34.50
2018-07-30T07:55:57.682Z,34.60
2018-07-30T07:58:25.146Z,34.60
2018-07-30T08:00:52.580Z,34.70
2018-07-30T08:03:20.497Z,34.70
2018-07-30T08:05:47.996Z,34.80
2018-07-30T08:08:15.476Z,34.90
2018-07-30T08:10:42.923Z,34.90
2018-07-30T08:13:10.398Z,35.00
2018-07-30T08:15:37.841Z,35.10
2018-07-30T08:18:05.310Z,35.10
2018-07-30T08:20:32.749Z,35.20
2018-07-30T08:23:00.318Z,35.20
2018-07-30T08:25:27.849Z,35.30
2018-07-30T08:27:55.308Z,35.40
2018-07-30T08:30:22.769Z,35.60
2018-07-30T08:32:50.241Z,35.70
2018-07-30T08:35:17.694Z,35.80
2018-07-30T08:37:45.161Z,35.80
2018-07-30T08:40:12.613Z,35.80
2018-07-30T08:42:40.213Z,35.80
2018-07-30T08:45:07.657Z,35.90
2018-07-30T08:47:35.121Z,35.90
2018-07-30T08:50:02.569Z,36.00
2018-07-30T08:52:30.049Z,36.00
2018-07-30T08:54:57.497Z,36.00
2018-07-30T08:57:24.956Z,36.10
2018-07-30T08:59:52.534Z,36.10
2018-07-30T09:02:20.149Z,36.10
2018-07-30T09:04:47.708Z,36.20
2018-07-30T09:07:15.260Z,36.30
2018-07-30T09:09:43.157Z,36.30
2018-07-30T09:14:37.949Z,36.50
2018-07-30T09:17:05.433Z,36.50
2018-07-30T09:19:32.893Z,36.50
2018-07-30T09:22:00.414Z,36.60
2018-07-30T09:24:28.085Z,36.60
2018-07-30T09:26:55.533Z,36.70
2018-07-30T09:29:23.008Z,36.80
2018-07-30T09:31:50.450Z,36.80
2018-07-30T09:34:17.906Z,36.80
2018-07-30T09:36:45.344Z,36.80
2018-07-30T09:39:12.804Z,36.80
2018-07-30T09:41:40.448Z,36.90
2018-07-30T09:44:07.909Z,36.90
2018-07-30T09:46:35.387Z,37.00
2018-07-30T09:49:02.844Z,37.10
2018-07-30T09:51:30.370Z,37.10
2018-07-30T09:53:57.821Z,37.20
2018-07-30T09:56:25.309Z,37.30
2018-07-30T09:58:52.768Z,37.30
2018-07-30T10:01:25.650Z,37.40
2018-07-30T10:03:53.106Z,37.50
2018-07-30T10:06:20.638Z,37.50
2018-07-30T10:08:48.005Z,37.50
2018-07-30T10:11:15.480Z,37.60
2018-07-30T10:13:42.924Z,37.60
2018-07-30T10:16:10.364Z,37.60
2018-07-30T10:18:37.882Z,37.70
2018-07-30T10:21:05.343Z,37.70
2018-07-30T10:23:32.899Z,37.70
2018-07-30T10:26:00.325Z,37.70
2018-07-30T10:28:27.801Z,37.70
2018-07-30T10:30:55.245Z,37.60
2018-07-30T10:33:22.689Z,37.60
2018-07-30T10:35:50.129Z,37.60
2018-07-30T10:38:17.654Z,37.60
2018-07-30T10:40:45.045Z,37.60
2018-07-30T10:43:12.493Z,37.60
2018-07-30T10:45:39.993Z,37.50
2018-07-30T10:48:07.425Z,37.60
2018-07-30T10:50:34.877Z,37.50
2018-07-30T10:53:02.316Z,37.50
2018-07-30T10:55:29.769Z,37.50
2018-07-30T11:00:24.917Z,37.50
2018-07-30T11:02:52.396Z,37.40
2018-07-30T11:05:19.857Z,37.40
2018-07-30T11:07:47.470Z,37.50
2018-07-30T11:10:14.874Z,37.30
2018-07-30T11:12:42.317Z,37.30
2018-07-30T11:15:09.777Z,37.30
2018-07-30T11:17:37.225Z,37.30
2018-07-30T11:20:04.677Z,37.30
2018-07-30T11:22:32.524Z,37.30
2018-07-30T11:24:59.985Z,37.40
2018-07-30T11:27:27.450Z,37.50
2018-07-30T11:29:55.213Z,37.50
2018-07-30T11:32:22.653Z,37.60
2018-07-30T11:34:50.133Z,37.50
2018-07-30T11:37:17.576Z,37.60
2018-07-30T11:39:45.029Z,37.50
2018-07-30T11:42:12.485Z,37.50
2018-07-30T11:44:39.937Z,37.60
2018-07-30T11:49:36.022Z,37.70
2018-07-30T11:52:03.500Z,37.80
2018-07-30T11:54:31.150Z,37.80
2018-07-30T11:56:58.485Z,37.90
2018-07-30T11:59:26.289Z,38.10
2018-07-30T12:01:53.783Z,38.10
2018-07-30T12:04:21.200Z,38.20
2018-07-30T12:06:48.637Z,38.20
2018-07-30T12:09:16.149Z,38.20
2018-07-30T12:11:43.600Z,38.30
2018-07-30T12:14:11.049Z,38.30
2018-07-30T12:16:38.565Z,38.40
2018-07-30T12:19:06.021Z,38.40
2018-07-30T12:21:33.474Z,38.50
2018-07-30T12:24:00.949Z,38.50
2018-07-30T12:26:28.497Z,38.50
2018-07-30T12:28:55.941Z,38.60
2018-07-30T12:31:23.386Z,38.50
2018-07-30T12:33:50.947Z,38.50
2018-07-30T12:36:18.591Z,38.50
2018-07-30T12:38:45.946Z,38.50
2018-07-30T12:41:13.400Z,38.50
2018-07-30T12:46:08.193Z,38.60
2018-07-30T12:48:35.646Z,38.60
2018-07-30T12:51:03.105Z,38.60
2018-07-30T12:53:30.548Z,38.60
2018-07-30T12:55:58.034Z,38.70
2018-07-30T13:00:52.720Z,38.70
2018-07-30T13:03:20.158Z,38.70
2018-07-30T13:05:47.637Z,38.70
2018-07-30T13:08:15.482Z,38.70
2018-07-30T13:10:43.036Z,38.70
2018-07-30T13:13:10.529Z,38.80
2018-07-30T13:15:37.985Z,38.90
2018-07-30T13:18:05.521Z,39.00
2018-07-30T13:20:33.230Z,39.00
2018-07-30T13:23:00.741Z,39.10
2018-07-30T13:25:28.314Z,39.10
2018-07-30T13:27:55.759Z,39.10
2018-07-30T13:30:23.218Z,39.10
2018-07-30T13:32:50.789Z,39.00
2018-07-30T13:35:18.256Z,38.90
2018-07-30T13:40:13.764Z,38.90
2018-07-30T13:42:41.226Z,38.90
2018-07-30T13:45:08.682Z,38.80
2018-07-30T13:47:36.302Z,38.90
2018-07-30T13:50:04.021Z,38.90
2018-07-30T13:52:31.469Z,38.90
2018-07-30T13:54:58.914Z,38.90
2018-07-30T13:57:26.377Z,38.90
2018-07-30T13:59:53.844Z,39.00
2018-07-30T14:02:21.285Z,39.00
2018-07-30T14:04:48.732Z,39.00
2018-07-30T14:07:16.188Z,38.90
2018-07-30T14:09:43.753Z,38.90
2018-07-30T14:12:11.208Z,38.80
2018-07-30T14:14:38.657Z,38.80
2018-07-30T14:17:06.109Z,38.80
2018-07-30T14:19:33.554Z,38.80
2018-07-30T14:22:01.004Z,38.80
2018-07-30T14:24:28.456Z,38.80
2018-07-30T14:26:55.917Z,38.80
2018-07-30T14:29:23.353Z,38.90
2018-07-30T14:31:50.830Z,38.90
2018-07-30T14:34:18.281Z,38.90
2018-07-30T14:36:45.805Z,38.90
2018-07-30T14:39:13.170Z,38.90
2018-07-30T14:41:40.620Z,38.90
2018-07-30T14:44:08.145Z,38.90
2018-07-30T14:46:35.704Z,39.00
2018-07-30T14:49:03.213Z,39.00
2018-07-30T14:51:30.718Z,39.00
2018-07-30T14:53:58.143Z,39.00
2018-07-30T14:56:25.593Z,39.10
2018-07-30T15:01:20.246Z,39.10
2018-07-30T15:03:47.701Z,39.10
2018-07-30T15:06:15.233Z,39.10
2018-07-30T15:08:42.606Z,39.00
2018-07-30T15:11:10.046Z,39.00
2018-07-30T15:13:37.539Z,39.00
2018-07-30T15:16:05.029Z,39.00
2018-07-30T15:18:32.494Z,39.10
2018-07-30T15:21:00.011Z,39.00
2018-07-30T15:23:27.461Z,39.00
2018-07-30T15:25:54.931Z,39.00
2018-07-30T15:28:22.367Z,39.00
2018-07-30T15:30:49.893Z,39.00
2018-07-30T15:33:17.385Z,39.00
2018-07-30T15:35:44.839Z,39.00
2018-07-30T15:38:12.309Z,39.00
2018-07-30T15:40:39.796Z,39.00
2018-07-30T15:43:07.345Z,39.00
2018-07-30T15:45:34.789Z,39.00
2018-07-30T15:48:02.249Z,39.00
2018-07-30T15:50:29.882Z,39.00
2018-07-30T15:52:57.361Z,39.00
2018-07-30T15:55:24.801Z,39.00
2018-07-30T15:57:52.277Z,39.00
2018-07-30T16:00:20.561Z,39.00
2018-07-30T16:02:48.028Z,39.00
2018-07-30T16:05:15.642Z,39.00
2018-07-30T16:07:43.448Z,39.00
2018-07-30T16:10:10.926Z,38.90
2018-07-30T16:12:38.373Z,38.90
2018-07-30T16:15:06.480Z,38.90
2018-07-30T16:17:34.017Z,38.90
2018-07-30T16:20:01.477Z,38.90
2018-07-30T16:22:29.008Z,38.80
2018-07-30T16:24:56.568Z,38.80
2018-07-30T16:27:24.065Z,38.80
2018-07-30T16:29:51.546Z,38.80
2018-07-30T16:32:19.029Z,38.70
2018-07-30T16:34:46.505Z,38.70
2018-07-30T16:37:14.221Z,38.70
2018-07-30T16:39:41.710Z,38.70
2018-07-30T16:42:09.127Z,38.70
2018-07-30T16:44:36.577Z,38.70
2018-07-30T16:47:04.083Z,38.70
2018-07-30T16:49:31.562Z,38.70
2018-07-30T16:51:59.005Z,38.70
2018-07-30T16:54:26.456Z,38.70
2018-07-30T16:56:53.917Z,38.60
2018-07-30T16:59:21.445Z,38.60
2018-07-30T17:01:48.893Z,38.60
2018-07-30T17:04:16.346Z,38.60
2018-07-30T17:06:43.797Z,38.50
2018-07-30T17:09:12.100Z,38.50
2018-07-30T17:11:39.593Z,38.50
2018-07-30T17:14:07.224Z,38.50
2018-07-30T17:16:34.709Z,38.40
2018-07-30T17:19:02.501Z,38.30
2018-07-30T17:21:29.945Z,38.20
2018-07-30T17:23:57.396Z,38.20
2018-07-30T17:26:24.857Z,38.20
2018-07-30T17:28:52.300Z,38.20
2018-07-30T17:31:20.504Z,38.20
2018-07-30T17:33:47.955Z,38.10
2018-07-30T17:36:15.401Z,38.10
2018-07-30T17:38:42.897Z,38.10
2018-07-30T17:41:10.349Z,38.10
2018-07-30T17:46:05.337Z,38.10
2018-07-30T17:48:32.792Z,38.00
2018-07-30T17:51:00.255Z,38.00
2018-07-30T17:53:27.709Z,38.00
2018-07-30T17:55:55.144Z,38.00
2018-07-30T17:58:22.601Z,38.00
2018-07-30T18:00:50.051Z,38.00
2018-07-30T18:03:17.551Z,38.00
2018-07-30T18:05:44.997Z,38.00
2018-07-30T18:08:12.540Z,38.00
2018-07-30T18:10:39.989Z,37.90
2018-07-30T18:13:07.433Z,37.90
2018-07-30T18:15:34.889Z,37.90
2018-07-30T18:18:02.424Z,37.90
2018-07-30T18:20:29.878Z,37.90
2018-07-30T18:22:57.389Z,37.80
2018-07-30T18:25:24.849Z,37.80
2018-07-30T18:27:52.301Z,37.70
2018-07-30T18:30:19.761Z,37.70
2018-07-30T18:32:47.292Z,37.60
2018-07-30T18:35:14.795Z,37.50
2018-07-30T18:37:42.233Z,37.50
2018-07-30T18:40:09.797Z,37.50
2018-07-30T18:42:37.343Z,37.50
2018-07-30T18:45:05.753Z,37.40
2018-07-30T18:47:33.206Z,37.40
2018-07-30T18:50:00.757Z,37.40
2018-07-30T18:52:28.192Z,37.30
2018-07-30T18:54:55.645Z,37.30
2018-07-30T18:57:23.109Z,37.30
2018-07-30T18:59:50.562Z,37.20
2018-07-30T19:02:18.005Z,37.20
2018-07-30T19:04:45.469Z,37.20
2018-07-30T19:07:12.920Z,37.10
2018-07-30T19:09:40.377Z,37.10
2018-07-30T19:12:07.854Z,37.00
2018-07-30T19:14:35.314Z,37.00
2018-07-30T19:17:02.761Z,37.00
2018-07-30T19:19:30.638Z,36.90
2018-07-30T19:21:58.099Z,36.90
2018-07-30T19:24:25.612Z,36.80
2018-07-30T19:26:53.017Z,36.70
2018-07-30T19:29:20.849Z,36.70
2018-07-30T19:31:48.346Z,36.60
2018-07-30T19:34:15.792Z,36.60
2018-07-30T19:36:43.256Z,36.50
2018-07-30T19:39:12.522Z,36.40
2018-07-30T19:41:40.013Z,36.40
2018-07-30T19:44:07.863Z,36.40
2018-07-30T19:46:35.283Z,36.30
2018-07-30T19:49:02.896Z,36.30
2018-07-30T19:51:30.415Z,36.20
2018-07-30T19:53:57.926Z,36.10
2018-07-30T19:56:25.533Z,36.10
2018-07-30T19:58:53.195Z,36.00
2018-07-30T20:01:21.105Z,36.00
2018-07-30T20:03:48.666Z,35.90
2018-07-30T20:06:16.270Z,35.90
2018-07-30T20:08:43.785Z,35.90
2018-07-30T20:11:11.407Z,35.90
2018-07-30T20:13:39.355Z,35.90
2018-07-30T20:16:07.147Z,35.80
2018-07-30T20:18:34.593Z,35.80
2018-07-30T20:21:02.054Z,35.80
2018-07-30T20:23:29.509Z,35.70
2018-07-30T20:25:56.960Z,35.70
2018-07-30T20:28:24.457Z,35.70
2018-07-30T20:30:51.927Z,35.60
2018-07-30T20:33:19.392Z,35.50
2018-07-30T20:35:46.948Z,35.30
2018-07-30T20:38:14.491Z,35.30
2018-07-30T20:40:42.249Z,35.20
2018-07-30T20:43:09.692Z,35.10
2018-07-30T20:45:37.153Z,35.00
2018-07-30T20:48:04.601Z,35.00
2018-07-30T20:50:32.278Z,35.00
2018-07-30T20:52:59.710Z,35.00
2018-07-30T20:55:27.378Z,34.90
2018-07-30T20:57:54.833Z,34.80
2018-07-30T21:00:22.461Z,34.80
2018-07-30T21:02:50.020Z,34.80
2018-07-30T21:05:17.631Z,34.80
2018-07-30T21:07:45.117Z,34.80
2018-07-30T21:10:12.669Z,34.70
2018-07-30T21:12:40.233Z,34.70
2018-07-30T21:15:07.689Z,34.60
2018-07-30T21:17:35.520Z,34.60
2018-07-30T21:20:03.283Z,34.60
2018-07-30T21:22:30.732Z,34.60
2018-07-30T21:24:58.193Z,34.50
2018-07-30T21:27:25.653Z,34.50
2018-07-30T21:29:53.132Z,34.50
2018-07-30T21:32:21.161Z,34.40
2018-07-30T21:34:48.616Z,34.40
2018-07-30T21:37:16.077Z,34.30
2018-07-30T21:39:43.520Z,34.30
2018-07-30T21:44:38.197Z,34.30
2018-07-30T21:47:05.653Z,34.20
2018-07-30T21:49:33.097Z,34.10
2018-07-30T21:52:00.557Z,34.20
2018-07-30T21:54:27.996Z,34.10
2018-07-30T21:56:55.440Z,34.10
2018-07-30T21:59:22.890Z,34.10
2018-07-30T22:04:17.570Z,34.00
2018-07-30T22:06:45.018Z,34.00
2018-07-30T22:09:12.474Z,34.00
2018-07-30T22:11:39.929Z,33.90
2018-07-30T22:14:07.376Z,33.90
2018-07-30T22:16:34.841Z,33.90
2018-07-30T22:19:02.285Z,33.90
2018-07-30T22:21:29.746Z,33.80
2018-07-30T22:23:57.200Z,33.80
2018-07-30T22:26:24.653Z,33.80
2018-07-30T22:28:52.140Z,33.80
2018-07-30T22:31:19.581Z,33.70
2018-07-30T22:33:47.039Z,33.60
2018-07-30T22:36:14.489Z,33.60
2018-07-30T22:38:42.056Z,33.60
2018-07-30T22:41:09.565Z,33.60
2018-07-30T22:43:37.022Z,33.60
2018-07-30T22:46:04.469Z,33.60
2018-07-30T22:48:31.922Z,33.50
2018-07-30T22:50:59.352Z,33.50
2018-07-30T22:53:26.809Z,33.50
2018-07-30T22:55:54.259Z,33.40
2018-07-30T22:58:21.714Z,33.40
2018-07-30T23:00:49.161Z,33.30
2018-07-30T23:03:16.620Z,33.30
2018-07-30T23:05:44.058Z,33.30
2018-07-30T23:08:11.517Z,33.30
2018-07-30T23:10:38.956Z,33.30
2018-07-30T23:13:06.413Z,33.20
2018-07-30T23:15:34.082Z,33.20
2018-07-30T23:18:01.530Z,33.20
2018-07-30T23:20:28.972Z,33.20
2018-07-30T23:22:56.485Z,33.20
2018-07-30T23:25:24.114Z,33.10
2018-07-30T23:27:51.608Z,33.00
2018-07-30T23:30:19.061Z,33.00
2018-07-30T23:32:46.662Z,33.00
2018-07-30T23:35:14.172Z,33.00
2018-07-30T23:37:41.617Z,33.00
2018-07-30T23:40:09.056Z,32.90
2018-07-30T23:42:36.596Z,32.90
2018-07-30T23:45:04.046Z,32.90
2018-07-30T23:47:31.505Z,32.90
2018-07-30T23:49:58.946Z,32.80
2018-07-30T23:52:26.397Z,32.80
2018-07-30T23:54:53.928Z,32.70
2018-07-30T23:57:21.716Z,32.70
2018-07-30T23:59:49.169Z,32.70
